createdAt,value
2018-05-25T00:02:22.024Z,16.63
2018-05-25T00:04:55.676Z,16.61
2018-05-25T00:07:29.252Z,16.62
2018-05-25T00:10:02.792Z,16.55
2018-05-25T00:12:36.485Z,16.54
2018-05-25T00:15:09.992Z,16.52
2018-05-25T00:17:43.748Z,16.53
2018-05-25T00:20:17.543Z,16.53
2018-05-25T00:22:51.152Z,16.61
2018-05-25T00:25:24.837Z,16.64
2018-05-25T00:27:58.580Z,16.68
2018-05-25T00:30:32.155Z,16.54
2018-05-25T00:33:05.741Z,16.62
2018-05-25T00:35:39.569Z,16.54
2018-05-25T00:38:13.352Z,16.46
2018-05-25T00:40:46.894Z,16.46
2018-05-25T00:43:20.660Z,16.47
2018-05-25T00:45:54.274Z,16.49
2018-05-25T00:48:27.915Z,16.52
2018-05-25T00:51:01.560Z,16.56
2018-05-25T00:53:35.229Z,16.54
2018-05-25T00:56:08.800Z,16.56
2018-05-25T00:58:42.533Z,16.52
2018-05-25T01:01:16.392Z,16.49
2018-05-25T01:03:50.181Z,16.52
2018-05-25T01:06:24.031Z,16.50
2018-05-25T01:08:57.641Z,16.50
2018-05-25T01:11:31.404Z,16.55
2018-05-25T01:14:05.005Z,16.56
2018-05-25T01:16:38.731Z,16.68
2018-05-25T01:19:12.272Z,16.67
2018-05-25T01:21:45.872Z,16.67
2018-05-25T01:24:19.432Z,16.91
2018-05-25T01:26:52.950Z,16.94
2018-05-25T01:29:26.684Z,16.87
2018-05-25T01:32:00.265Z,16.85
2018-05-25T01:34:33.982Z,16.92
2018-05-25T01:37:07.610Z,16.88
2018-05-25T01:39:41.263Z,16.93
2018-05-25T01:42:14.796Z,16.88
2018-05-25T01:44:48.535Z,16.91
2018-05-25T01:47:22.183Z,16.95
2018-05-25T01:49:55.868Z,16.87
2018-05-25T01:52:29.611Z,16.95
2018-05-25T01:55:03.280Z,16.92
2018-05-25T01:57:38.108Z,16.84
2018-05-25T02:00:11.836Z,16.86
2018-05-25T02:02:45.364Z,16.75
2018-05-25T02:05:18.934Z,16.75
2018-05-25T02:07:52.712Z,16.70
2018-05-25T02:10:26.401Z,16.65
2018-05-25T02:13:00.066Z,16.65
2018-05-25T02:15:33.588Z,16.76
2018-05-25T02:18:07.289Z,16.70
2018-05-25T02:20:40.991Z,16.64
2018-05-25T02:23:14.631Z,16.59
2018-05-25T02:25:48.376Z,16.59
2018-05-25T02:28:22.052Z,16.54
2018-05-25T02:30:55.583Z,16.51
2018-05-25T02:33:29.140Z,16.53
2018-05-25T02:36:02.797Z,16.48
2018-05-25T02:38:36.389Z,16.54
2018-05-25T02:41:09.875Z,16.43
2018-05-25T02:43:43.421Z,16.54
2018-05-25T02:46:17.168Z,16.50
2018-05-25T02:48:50.890Z,16.50
2018-05-25T02:51:24.564Z,16.51
2018-05-25T02:53:58.283Z,16.48
2018-05-25T02:56:32.068Z,16.47
2018-05-25T02:59:05.758Z,16.54
2018-05-25T03:01:39.474Z,16.46
2018-05-25T03:04:13.168Z,16.41
2018-05-25T03:06:46.892Z,16.38
2018-05-25T03:09:20.400Z,16.35
2018-05-25T03:11:54.121Z,16.27
2018-05-25T03:14:27.691Z,16.24
2018-05-25T03:17:01.552Z,16.24
2018-05-25T03:19:35.108Z,16.20
2018-05-25T03:22:08.768Z,16.16
2018-05-25T03:24:42.447Z,16.24
2018-05-25T03:27:15.988Z,16.29
2018-05-25T03:29:49.724Z,16.24
2018-05-25T03:32:23.312Z,16.14
2018-05-25T03:34:57.007Z,16.27
2018-05-25T03:37:30.536Z,16.30
2018-05-25T03:40:04.178Z,16.28
2018-05-25T03:42:37.932Z,16.25
2018-05-25T03:45:11.732Z,16.36
2018-05-25T03:47:45.361Z,16.42
2018-05-25T03:50:18.855Z,16.46
2018-05-25T03:52:52.512Z,16.44
2018-05-25T03:55:26.272Z,16.51
2018-05-25T03:58:00.005Z,16.47
2018-05-25T04:00:45.404Z,16.40
2018-05-25T04:03:19.180Z,16.44
2018-05-25T04:05:52.736Z,16.43
2018-05-25T04:08:26.416Z,16.42
2018-05-25T04:10:59.912Z,16.43
2018-05-25T04:13:33.700Z,16.48
2018-05-25T04:16:07.325Z,16.41
2018-05-25T04:18:40.874Z,16.49
2018-05-25T04:21:14.519Z,16.44
2018-05-25T04:23:48.284Z,16.39
2018-05-25T04:26:21.930Z,16.39
2018-05-25T04:28:55.594Z,16.41
2018-05-25T04:31:29.298Z,16.45
2018-05-25T04:34:02.874Z,16.47
2018-05-25T04:36:36.619Z,16.57
2018-05-25T04:39:10.396Z,16.61
2018-05-25T04:41:44.052Z,16.63
2018-05-25T04:44:17.634Z,16.69
2018-05-25T04:46:51.402Z,16.70
2018-05-25T04:49:24.981Z,16.83
2018-05-25T04:51:58.628Z,16.95
2018-05-25T04:54:32.330Z,16.97
2018-05-25T04:57:05.897Z,16.96
2018-05-25T04:59:39.671Z,17.03
2018-05-25T05:02:13.245Z,17.10
2018-05-25T05:04:46.967Z,17.15
2018-05-25T05:07:20.652Z,17.28
2018-05-25T05:09:54.268Z,17.31
2018-05-25T05:12:27.914Z,17.29
2018-05-25T05:15:01.728Z,17.37
2018-05-25T05:17:35.228Z,17.36
2018-05-25T05:20:08.974Z,17.42
2018-05-25T05:22:42.604Z,17.39
2018-05-25T05:25:16.241Z,17.48
2018-05-25T05:27:49.744Z,17.56
2018-05-25T05:30:23.404Z,17.64
2018-05-25T05:32:56.973Z,17.77
2018-05-25T05:35:30.685Z,17.90
2018-05-25T05:38:04.298Z,18.06
2018-05-25T05:40:38.155Z,18.15
2018-05-25T05:43:12.007Z,18.15
2018-05-25T05:45:45.644Z,18.35
2018-05-25T05:48:19.388Z,18.47
2018-05-25T05:50:53.064Z,18.58
2018-05-25T05:53:26.666Z,18.99
2018-05-25T05:56:00.506Z,18.82
2018-05-25T05:58:34.172Z,18.99
2018-05-25T06:01:07.744Z,19.04
2018-05-25T06:03:41.243Z,19.07
2018-05-25T06:06:14.908Z,19.09
2018-05-25T06:08:49.021Z,18.91
2018-05-25T06:11:22.919Z,19.07
2018-05-25T06:13:56.469Z,19.31
2018-05-25T06:16:30.151Z,19.35
2018-05-25T06:19:03.936Z,19.69
2018-05-25T06:21:37.580Z,19.79
2018-05-25T06:24:11.512Z,19.93
2018-05-25T06:26:45.203Z,19.92
2018-05-25T06:29:18.914Z,19.42
2018-05-25T06:31:52.420Z,20.02
2018-05-25T06:34:25.972Z,19.72
2018-05-25T06:36:59.515Z,19.85
2018-05-25T06:39:33.079Z,19.65
2018-05-25T06:42:06.868Z,19.44
2018-05-25T06:44:40.624Z,19.44
2018-05-25T06:47:14.196Z,19.31
2018-05-25T06:49:47.714Z,19.65
2018-05-25T06:52:21.453Z,19.97
2018-05-25T06:54:55.265Z,20.33
2018-05-25T06:57:28.985Z,20.54
2018-05-25T07:00:02.653Z,20.66
2018-05-25T07:02:36.312Z,20.42
2018-05-25T07:05:10.087Z,21.03
2018-05-25T07:07:43.859Z,21.54
2018-05-25T07:10:17.565Z,22.29
2018-05-25T07:12:51.205Z,22.70
2018-05-25T07:15:24.748Z,22.25
2018-05-25T07:18:04.285Z,22.27
2018-05-25T07:20:38.030Z,22.48
2018-05-25T07:23:11.703Z,22.50
2018-05-25T07:25:45.393Z,21.91
2018-05-25T07:28:19.276Z,21.32
2018-05-25T07:30:53.030Z,20.90
2018-05-25T07:33:26.855Z,20.84
2018-05-25T07:36:00.497Z,20.67
2018-05-25T07:38:34.122Z,20.67
2018-05-25T07:41:07.753Z,20.66
2018-05-25T07:43:41.325Z,20.92
2018-05-25T07:46:14.955Z,20.89
2018-05-25T07:48:48.672Z,21.10
2018-05-25T07:51:22.596Z,21.46
2018-05-25T07:53:56.293Z,21.67
2018-05-25T07:56:29.993Z,21.72
2018-05-25T07:59:03.624Z,21.65
2018-05-25T08:01:37.493Z,21.64
2018-05-25T08:04:11.105Z,21.50
2018-05-25T08:06:44.905Z,21.41
2018-05-25T08:09:18.666Z,21.63
2018-05-25T08:11:52.284Z,21.55
2018-05-25T08:14:25.900Z,21.30
2018-05-25T08:17:00.329Z,21.48
2018-05-25T08:19:34.157Z,21.28
2018-05-25T08:22:07.836Z,21.62
2018-05-25T08:24:41.511Z,21.88
2018-05-25T08:27:15.259Z,22.15
2018-05-25T08:29:49.052Z,21.95
2018-05-25T08:32:22.681Z,22.01
2018-05-25T08:34:56.296Z,22.15
2018-05-25T08:37:29.969Z,22.38
2018-05-25T08:40:03.802Z,22.45
2018-05-25T08:42:37.624Z,22.99
2018-05-25T08:45:11.460Z,22.53
2018-05-25T08:47:45.175Z,23.32
2018-05-25T08:50:18.908Z,23.71
2018-05-25T08:52:52.527Z,24.21
2018-05-25T08:55:26.243Z,24.17
2018-05-25T08:57:59.869Z,24.02
2018-05-25T09:00:33.521Z,23.54
2018-05-25T09:03:07.227Z,23.72
2018-05-25T09:05:41.017Z,24.18
2018-05-25T09:08:14.745Z,24.05
2018-05-25T09:10:48.360Z,24.52
2018-05-25T09:13:22.137Z,24.56
2018-05-25T09:15:55.905Z,24.05
2018-05-25T09:18:29.473Z,25.43
2018-05-25T09:21:03.177Z,27.83
2018-05-25T09:23:36.761Z,29.28
2018-05-25T09:26:10.493Z,29.83
2018-05-25T09:28:44.239Z,29.64
2018-05-25T09:31:18.209Z,28.79
2018-05-25T09:33:51.896Z,28.41
2018-05-25T09:36:25.701Z,28.35
2018-05-25T09:38:59.433Z,26.95
2018-05-25T09:41:33.070Z,27.31
2018-05-25T09:44:06.766Z,26.41
2018-05-25T09:46:40.397Z,26.39
2018-05-25T09:49:14.105Z,26.66
2018-05-25T09:51:47.883Z,27.34
2018-05-25T09:54:21.508Z,28.47
2018-05-25T09:57:01.216Z,27.66
2018-05-25T09:59:35.034Z,29.50
2018-05-25T10:02:09.060Z,30.30
2018-05-25T10:04:42.886Z,29.70
2018-05-25T10:07:16.611Z,29.05
2018-05-25T10:09:50.343Z,27.56
2018-05-25T10:12:23.973Z,28.22
2018-05-25T10:14:57.761Z,29.66
2018-05-25T10:17:31.497Z,29.52
2018-05-25T10:20:05.172Z,30.09
2018-05-25T10:22:38.932Z,29.83
2018-05-25T10:25:12.665Z,29.96
2018-05-25T10:27:46.341Z,30.73
2018-05-25T10:30:20.059Z,30.25
2018-05-25T10:32:53.693Z,28.93
2018-05-25T10:35:27.241Z,28.25
2018-05-25T10:38:01.041Z,27.98
2018-05-25T10:40:34.770Z,28.67
2018-05-25T10:43:08.328Z,28.85
2018-05-25T10:45:42.121Z,27.26
2018-05-25T10:48:15.834Z,28.07
2018-05-25T10:50:49.437Z,26.91
2018-05-25T10:53:23.043Z,27.77
2018-05-25T10:55:56.732Z,29.94
2018-05-25T10:58:30.480Z,28.14
2018-05-25T11:01:04.137Z,30.25
2018-05-25T11:03:37.938Z,33.01
2018-05-25T11:06:11.483Z,30.31
2018-05-25T11:08:45.194Z,32.84
2018-05-25T11:11:18.997Z,32.35
2018-05-25T11:13:53.042Z,33.06
2018-05-25T11:19:26.045Z,33.09
2018-05-25T11:21:59.797Z,34.13
2018-05-25T11:24:33.436Z,32.48
2018-05-25T11:27:27.834Z,30.59
2018-05-25T11:30:01.498Z,31.20
2018-05-25T11:32:35.135Z,31.38
2018-05-25T11:35:08.839Z,27.74
2018-05-25T11:37:42.516Z,29.01
2018-05-25T11:40:16.284Z,32.04
2018-05-25T11:42:50.000Z,31.15
2018-05-25T11:45:23.554Z,29.20
2018-05-25T11:47:57.317Z,28.13
2018-05-25T11:50:31.047Z,27.39
2018-05-25T11:53:04.698Z,27.47
2018-05-25T11:55:39.599Z,27.38
2018-05-25T11:58:13.308Z,27.63
2018-05-25T12:00:47.020Z,26.50
2018-05-25T12:03:20.764Z,26.65
2018-05-25T12:05:54.493Z,26.65
2018-05-25T12:08:28.241Z,26.29
2018-05-25T12:11:01.897Z,25.44
2018-05-25T12:13:35.603Z,25.01
2018-05-25T12:16:09.442Z,24.73
2018-05-25T12:18:43.144Z,25.52
2018-05-25T12:21:16.717Z,25.87
2018-05-25T12:23:50.430Z,26.07
2018-05-25T12:26:24.135Z,25.82
2018-05-25T12:28:57.853Z,24.90
2018-05-25T12:31:31.403Z,24.88
2018-05-25T12:34:05.088Z,24.70
2018-05-25T12:36:38.776Z,24.56
2018-05-25T12:39:12.544Z,23.97
2018-05-25T12:41:46.151Z,24.23
2018-05-25T12:44:19.709Z,24.29
2018-05-25T12:46:53.460Z,23.83
2018-05-25T12:49:26.968Z,23.94
2018-05-25T12:52:00.535Z,23.68
2018-05-25T12:54:34.151Z,23.63
2018-05-25T12:57:07.847Z,23.44
2018-05-25T12:59:41.360Z,23.29
2018-05-25T13:02:14.950Z,23.28
2018-05-25T13:04:48.664Z,23.24
2018-05-25T13:07:22.456Z,23.32
2018-05-25T13:09:55.956Z,23.44
2018-05-25T13:12:29.573Z,23.14
2018-05-25T13:15:03.108Z,22.99
2018-05-25T13:17:36.908Z,23.13
2018-05-25T13:20:10.552Z,23.11
2018-05-25T13:22:44.107Z,23.28
2018-05-25T13:25:17.876Z,23.23
2018-05-25T13:27:51.455Z,23.29
2018-05-25T13:30:25.132Z,23.29
2018-05-25T13:32:58.612Z,23.20
2018-05-25T13:35:32.189Z,23.10
2018-05-25T13:38:05.763Z,23.19
2018-05-25T13:40:39.491Z,23.28
2018-05-25T13:43:13.203Z,23.25
2018-05-25T13:45:46.732Z,23.06
2018-05-25T13:48:20.564Z,23.04
2018-05-25T13:50:54.063Z,22.91
2018-05-25T13:53:27.676Z,23.35
2018-05-25T13:56:01.295Z,23.36
2018-05-25T13:58:35.043Z,23.44
2018-05-25T14:01:08.569Z,23.48
2018-05-25T14:03:42.151Z,23.28
2018-05-25T14:06:15.823Z,23.85
2018-05-25T14:08:49.419Z,24.46
2018-05-25T14:11:23.093Z,24.95
2018-05-25T14:13:56.611Z,25.46
2018-05-25T14:16:30.496Z,25.14
2018-05-25T14:19:04.170Z,25.19
2018-05-25T14:21:37.700Z,25.19
2018-05-25T14:24:11.272Z,26.08
2018-05-25T14:26:45.141Z,25.94
2018-05-25T14:29:18.684Z,26.24
2018-05-25T14:31:52.392Z,27.79
2018-05-25T14:34:26.196Z,28.35
2018-05-25T14:36:59.677Z,28.00
2018-05-25T14:39:33.429Z,28.28
2018-05-25T14:42:07.108Z,28.08
2018-05-25T14:44:40.888Z,28.72
2018-05-25T14:47:14.407Z,29.17
2018-05-25T14:49:48.091Z,28.32
2018-05-25T14:52:21.684Z,28.92
2018-05-25T14:54:55.495Z,28.62
2018-05-25T14:57:29.245Z,28.76
2018-05-25T15:00:02.853Z,29.16
2018-05-25T15:02:36.388Z,29.02
2018-05-25T15:05:10.029Z,28.93
2018-05-25T15:07:43.584Z,28.55
2018-05-25T15:10:17.224Z,30.11
2018-05-25T15:12:50.998Z,30.20
2018-05-25T15:15:24.582Z,29.61
2018-05-25T15:17:58.218Z,29.01
2018-05-25T15:20:31.870Z,28.37
2018-05-25T15:23:05.435Z,28.27
2018-05-25T15:25:39.133Z,27.78
2018-05-25T15:28:12.875Z,26.59
2018-05-25T15:30:46.482Z,26.74
2018-05-25T15:33:20.037Z,26.51
2018-05-25T15:35:53.859Z,26.53
2018-05-25T15:38:27.492Z,26.09
2018-05-25T15:41:01.292Z,25.59
2018-05-25T15:43:34.825Z,26.00
2018-05-25T15:46:08.628Z,25.91
2018-05-25T15:48:43.018Z,26.29
2018-05-25T15:51:16.591Z,25.99
2018-05-25T15:53:50.335Z,25.85
2018-05-25T15:56:23.937Z,25.90
2018-05-25T15:58:57.564Z,25.90
2018-05-25T16:01:31.090Z,25.95
2018-05-25T16:04:04.796Z,25.99
2018-05-25T16:06:38.392Z,25.84
2018-05-25T16:09:12.046Z,25.80
2018-05-25T16:11:45.589Z,25.68
2018-05-25T16:14:19.379Z,25.92
2018-05-25T16:16:52.906Z,25.88
2018-05-25T16:19:26.504Z,25.71
2018-05-25T16:22:00.032Z,25.49
2018-05-25T16:24:33.764Z,25.73
2018-05-25T16:27:07.317Z,25.55
2018-05-25T16:29:41.015Z,25.23
2018-05-25T16:32:14.553Z,25.44
2018-05-25T16:34:48.217Z,25.38
2018-05-25T16:37:21.820Z,25.42
2018-05-25T16:39:55.427Z,25.39
2018-05-25T16:42:29.044Z,25.07
2018-05-25T16:45:02.712Z,25.15
2018-05-25T16:47:36.342Z,24.97
2018-05-25T16:50:09.987Z,24.78
2018-05-25T16:52:43.612Z,24.67
2018-05-25T16:55:17.241Z,24.72
2018-05-25T16:57:50.886Z,24.70
2018-05-25T17:00:24.445Z,24.59
2018-05-25T17:02:57.956Z,24.46
2018-05-25T17:05:31.830Z,24.57
2018-05-25T17:08:05.612Z,24.55
2018-05-25T17:10:39.164Z,24.45
2018-05-25T17:13:12.836Z,24.58
2018-05-25T17:15:46.475Z,24.49
2018-05-25T17:18:19.980Z,24.54
2018-05-25T17:20:53.736Z,24.57
2018-05-25T17:23:27.236Z,24.47
2018-05-25T17:26:01.062Z,24.52
2018-05-25T17:28:34.771Z,24.46
2018-05-25T17:31:08.536Z,24.37
2018-05-25T17:33:42.378Z,24.33
2018-05-25T17:36:16.195Z,24.18
2018-05-25T17:38:49.872Z,24.22
2018-05-25T17:41:23.448Z,23.98
2018-05-25T17:43:57.007Z,23.99
2018-05-25T17:46:30.600Z,23.90
2018-05-25T17:49:04.288Z,23.84
2018-05-25T17:51:38.036Z,23.79
2018-05-25T17:54:11.573Z,23.65
2018-05-25T17:56:45.139Z,23.48
2018-05-25T17:59:18.924Z,23.37
2018-05-25T18:01:52.429Z,23.45
2018-05-25T18:04:26.050Z,23.35
2018-05-25T18:06:59.716Z,23.15
2018-05-25T18:09:33.223Z,23.09
2018-05-25T18:12:07.016Z,23.04
2018-05-25T18:14:40.757Z,22.93
2018-05-25T18:17:14.534Z,22.95
2018-05-25T18:19:48.187Z,22.91
2018-05-25T18:22:21.792Z,22.85
2018-05-25T18:24:55.500Z,22.90
2018-05-25T18:27:29.224Z,22.92
2018-05-25T18:30:02.759Z,22.88
2018-05-25T18:32:36.568Z,22.68
2018-05-25T18:35:10.283Z,22.76
2018-05-25T18:37:43.864Z,22.62
2018-05-25T18:40:17.503Z,22.58
2018-05-25T18:42:51.062Z,22.48
2018-05-25T18:45:24.991Z,22.45
2018-05-25T18:47:58.689Z,22.31
2018-05-25T18:50:32.311Z,22.34
2018-05-25T18:53:05.878Z,22.29
2018-05-25T18:55:39.528Z,22.20
2018-05-25T18:58:13.160Z,22.11
2018-05-25T19:00:46.803Z,21.87
2018-05-25T19:03:20.488Z,21.84
2018-05-25T19:05:54.197Z,21.90
2018-05-25T19:08:27.806Z,21.84
2018-05-25T19:11:01.613Z,21.83
2018-05-25T19:13:35.229Z,21.73
2018-05-25T19:16:09.048Z,21.66
2018-05-25T19:18:42.630Z,21.58
2018-05-25T19:21:16.181Z,21.55
2018-05-25T19:23:49.817Z,21.63
2018-05-25T19:26:23.393Z,21.65
2018-05-25T19:28:57.176Z,21.65
2018-05-25T19:31:30.869Z,21.58
2018-05-25T19:34:04.431Z,21.58
2018-05-25T19:36:38.056Z,21.51
2018-05-25T19:39:11.592Z,21.47
2018-05-25T19:41:45.240Z,21.42
2018-05-25T19:44:19.038Z,21.46
2018-05-25T19:46:52.668Z,21.41
2018-05-25T19:49:26.494Z,21.31
2018-05-25T19:52:00.027Z,21.15
2018-05-25T19:54:33.683Z,21.26
2018-05-25T19:57:07.435Z,21.08
2018-05-25T19:59:41.152Z,20.99
2018-05-25T20:02:15.049Z,21.06
2018-05-25T20:04:48.512Z,20.93
2018-05-25T20:07:22.079Z,20.72
2018-05-25T20:09:56.379Z,20.69
2018-05-25T20:12:29.939Z,20.65
2018-05-25T20:15:03.759Z,20.42
2018-05-25T20:17:37.439Z,20.32
2018-05-25T20:20:11.173Z,20.28
2018-05-25T20:22:44.720Z,20.26
2018-05-25T20:25:18.515Z,20.21
2018-05-25T20:27:52.235Z,20.17
2018-05-25T20:30:25.739Z,20.22
2018-05-25T20:32:59.299Z,20.33
2018-05-25T20:35:33.083Z,20.55
2018-05-25T20:38:06.740Z,20.48
2018-05-25T20:40:40.391Z,20.33
2018-05-25T20:43:14.200Z,20.34
2018-05-25T20:45:47.704Z,20.48
2018-05-25T20:48:21.280Z,20.51
2018-05-25T20:50:54.808Z,20.42
2018-05-25T20:53:28.412Z,20.31
2018-05-25T20:56:02.100Z,20.31
2018-05-25T20:58:35.891Z,20.32
2018-05-25T21:01:09.735Z,20.43
2018-05-25T21:03:43.268Z,20.46
2018-05-25T21:06:17.348Z,20.41
2018-05-25T21:08:51.006Z,20.36
2018-05-25T21:11:24.852Z,20.27
2018-05-25T21:13:58.460Z,20.25
2018-05-25T21:16:32.939Z,20.17
2018-05-25T21:19:06.719Z,20.13
2018-05-25T21:21:40.516Z,20.09
2018-05-25T21:24:14.314Z,20.11
2018-05-25T21:26:47.776Z,19.93
2018-05-25T21:29:21.507Z,19.86
2018-05-25T21:31:55.055Z,19.88
2018-05-25T21:34:28.824Z,19.90
2018-05-25T21:37:03.176Z,19.94
2018-05-25T21:39:36.861Z,19.99
2018-05-25T21:42:10.481Z,19.95
2018-05-25T21:44:44.084Z,19.91
2018-05-25T21:47:17.655Z,19.73
2018-05-25T21:49:51.272Z,19.77
2018-05-25T21:52:24.992Z,19.69
2018-05-25T21:54:58.603Z,19.64
2018-05-25T21:57:32.227Z,19.60
2018-05-25T22:00:05.785Z,19.57
2018-05-25T22:02:39.452Z,19.58
2018-05-25T22:05:13.272Z,19.65
2018-05-25T22:07:46.892Z,19.60
2018-05-25T22:10:20.560Z,19.56
2018-05-25T22:12:54.064Z,19.55
2018-05-25T22:15:27.725Z,19.55
2018-05-25T22:18:01.307Z,19.50
2018-05-25T22:20:34.872Z,19.48
2018-05-25T22:23:08.624Z,19.54
2018-05-25T22:25:42.367Z,19.36
2018-05-25T22:28:15.922Z,19.42
2018-05-25T22:30:49.697Z,19.39
2018-05-25T22:33:23.453Z,19.40
2018-05-25T22:35:57.063Z,19.50
2018-05-25T22:38:30.597Z,19.58
2018-05-25T22:41:04.264Z,19.57
2018-05-25T22:43:49.759Z,19.57
2018-05-25T22:46:35.376Z,19.49
2018-05-25T22:49:21.001Z,19.47
2018-05-25T22:52:06.608Z,19.51
2018-05-25T22:54:41.952Z,19.43
2018-05-25T22:57:15.657Z,19.35
2018-05-25T22:59:49.296Z,19.22
2018-05-25T23:02:22.789Z,19.19
2018-05-25T23:04:56.580Z,19.11
2018-05-25T23:07:30.317Z,19.05
2018-05-25T23:10:04.029Z,19.02
2018-05-25T23:12:37.565Z,19.13
2018-05-25T23:15:11.176Z,19.12
2018-05-25T23:17:44.917Z,19.08
2018-05-25T23:20:18.482Z,19.02
2018-05-25T23:22:52.028Z,19.03
2018-05-25T23:25:25.877Z,19.04
2018-05-25T23:27:59.408Z,19.14
2018-05-25T23:30:33.188Z,19.05
2018-05-25T23:33:06.727Z,19.03
2018-05-25T23:35:40.407Z,19.01
2018-05-25T23:38:14.143Z,19.03
2018-05-25T23:40:47.801Z,19.01
2018-05-25T23:43:21.419Z,19.04
2018-05-25T23:45:54.974Z,19.01
2018-05-25T23:48:28.734Z,18.95
2018-05-25T23:51:02.493Z,18.97
2018-05-25T23:53:36.017Z,19.01
2018-05-25T23:56:09.544Z,18.87
2018-05-25T23:58:43.233Z,18.88
